JOE121 YBTL-YBCS
Flight info
| Callsign | JOE121 |
|---|---|
| Flight time | 0h 48m |
| Altitude | 20000 |
| Route | PEWEE V308 BARIA Q67 CS |
| Aircraft | A20N/M-SDE2E3FGHIRWXY/LB1 |
Departure
| Time | 2026-05-07 12:24 |
|---|---|
| Airport | Townsville Airport / RAAF Base Townsville (YBTL) |
Arrival
| Time | 2026-05-07 13:12 |
|---|---|
| Airport | Cairns International Airport (YBCS) |
| Time | Latitude | Longitude | Altitude | Speed | Heading |
|---|---|---|---|---|---|
| 2026-05-07 11:41 | -19.25566 | 146.76985 | 26 ft | 0 kts | 106° |
| 2026-05-07 12:09 | -19.25564 | 146.76980 | 26 ft | 2 kts | 106° |
| 2026-05-07 12:09 | -19.25560 | 146.76965 | 25 ft | 2 kts | 106° |
| 2026-05-07 12:09 | -19.25556 | 146.76950 | 24 ft | 2 kts | 121° |
| 2026-05-07 12:10 | -19.25552 | 146.76943 | 26 ft | 1 kts | 137° |
| 2026-05-07 12:10 | -19.25546 | 146.76937 | 26 ft | 1 kts | 159° |
| 2026-05-07 12:10 | -19.25539 | 146.76935 | 24 ft | 1 kts | 182° |
| 2026-05-07 12:10 | -19.25535 | 146.76935 | 24 ft | 0 kts | 193° |
| 2026-05-07 12:17 | -19.25542 | 146.76933 | 26 ft | 3 kts | 192° |
| 2026-05-07 12:17 | -19.25590 | 146.76921 | 22 ft | 10 kts | 194° |
| 2026-05-07 12:17 | -19.25649 | 146.76887 | 27 ft | 11 kts | 226° |
| 2026-05-07 12:18 | -19.25637 | 146.76819 | 24 ft | 12 kts | 301° |
| 2026-05-07 12:18 | -19.25633 | 146.76739 | 24 ft | 9 kts | 239° |
| 2026-05-07 12:18 | -19.25687 | 146.76698 | 23 ft | 10 kts | 208° |
| 2026-05-07 12:18 | -19.25753 | 146.76662 | 29 ft | 11 kts | 207° |
| 2026-05-07 12:19 | -19.25827 | 146.76622 | 29 ft | 12 kts | 207° |
| 2026-05-07 12:19 | -19.25859 | 146.76552 | 24 ft | 12 kts | 286° |
| 2026-05-07 12:19 | -19.25812 | 146.76483 | 28 ft | 10 kts | 332° |
| 2026-05-07 12:19 | -19.25769 | 146.76498 | 25 ft | 0 kts | 25° |
| 2026-05-07 12:23 | -19.25754 | 146.76506 | 27 ft | 13 kts | 27° |
| 2026-05-07 12:23 | -19.25424 | 146.76666 | 19 ft | 95 kts | 24° |
| 2026-05-07 12:24 | -19.24592 | 146.77055 | 32 ft | 162 kts | 25° |
| 2026-05-07 12:24 | -19.23512 | 146.77548 | 637 ft | 172 kts | 25° |
| 2026-05-07 12:24 | -19.22390 | 146.78022 | 1487 ft | 173 kts | 24° |
| 2026-05-07 12:24 | -19.21278 | 146.78459 | 2301 ft | 177 kts | 25° |
| 2026-05-07 12:25 | -19.21197 | 146.78491 | 2328 ft | 178 kts | 25° |
| 2026-05-07 12:26 | -19.20458 | 146.78775 | 2608 ft | 192 kts | 24° |
| 2026-05-07 12:26 | -19.19083 | 146.79144 | 3047 ft | 220 kts | 4° |
| 2026-05-07 12:26 | -19.17507 | 146.78788 | 3536 ft | 245 kts | 341° |
| 2026-05-07 12:27 | -19.15875 | 146.78062 | 4240 ft | 260 kts | 338° |
| 2026-05-07 12:27 | -19.14205 | 146.77254 | 5115 ft | 268 kts | 336° |
| 2026-05-07 12:27 | -19.12502 | 146.76426 | 6053 ft | 270 kts | 337° |
| 2026-05-07 12:27 | -19.10783 | 146.75610 | 7024 ft | 270 kts | 340° |
| 2026-05-07 12:28 | -19.08952 | 146.75276 | 7684 ft | 269 kts | 6° |
| 2026-05-07 12:28 | -19.07180 | 146.75837 | 7961 ft | 268 kts | 30° |
| 2026-05-07 12:28 | -19.05526 | 146.76918 | 8066 ft | 289 kts | 37° |
| 2026-05-07 12:28 | -19.03868 | 146.78131 | 8070 ft | 289 kts | 37° |
| 2026-05-07 12:29 | -19.02105 | 146.79135 | 8055 ft | 292 kts | 18° |
| 2026-05-07 12:29 | -19.00065 | 146.79283 | 8311 ft | 298 kts | 350° |
| 2026-05-07 12:29 | -18.98069 | 146.78775 | 9347 ft | 290 kts | 346° |
| 2026-05-07 12:29 | -18.96158 | 146.78233 | 10517 ft | 282 kts | 345° |
| 2026-05-07 12:30 | -18.94206 | 146.77678 | 10951 ft | 302 kts | 344° |
| 2026-05-07 12:30 | -18.92107 | 146.77088 | 11254 ft | 323 kts | 344° |
| 2026-05-07 12:30 | -18.89865 | 146.76466 | 11596 ft | 340 kts | 345° |
| 2026-05-07 12:30 | -18.87567 | 146.75836 | 12363 ft | 342 kts | 344° |
| 2026-05-07 12:31 | -18.85249 | 146.75203 | 13160 ft | 345 kts | 343° |
| 2026-05-07 12:31 | -18.82919 | 146.74568 | 13927 ft | 347 kts | 343° |
| 2026-05-07 12:31 | -18.80567 | 146.73925 | 14585 ft | 351 kts | 343° |
| 2026-05-07 12:31 | -18.78195 | 146.73275 | 15236 ft | 354 kts | 343° |
| 2026-05-07 12:32 | -18.75798 | 146.72615 | 15859 ft | 358 kts | 343° |
| 2026-05-07 12:32 | -18.73377 | 146.71951 | 16487 ft | 361 kts | 343° |
| 2026-05-07 12:32 | -18.70931 | 146.71282 | 17095 ft | 365 kts | 343° |
| 2026-05-07 12:32 | -18.68466 | 146.70609 | 17709 ft | 368 kts | 343° |
| 2026-05-07 12:33 | -18.63496 | 146.69251 | 18831 ft | 374 kts | 343° |
| 2026-05-07 12:33 | -18.60970 | 146.68562 | 19399 ft | 375 kts | 343° |
| 2026-05-07 12:33 | -18.58436 | 146.67870 | 19825 ft | 378 kts | 343° |
| 2026-05-07 12:34 | -18.55895 | 146.67176 | 19993 ft | 378 kts | 342° |
| 2026-05-07 12:34 | -18.53347 | 146.66469 | 20040 ft | 378 kts | 342° |
| 2026-05-07 12:34 | -18.50803 | 146.65763 | 20046 ft | 378 kts | 342° |
| 2026-05-07 12:34 | -18.48256 | 146.65062 | 20045 ft | 378 kts | 342° |
| 2026-05-07 12:35 | -18.45708 | 146.64365 | 20038 ft | 378 kts | 343° |
| 2026-05-07 12:35 | -18.43160 | 146.63674 | 20042 ft | 378 kts | 343° |
| 2026-05-07 12:35 | -18.40610 | 146.62982 | 20043 ft | 378 kts | 343° |
| 2026-05-07 12:35 | -18.38059 | 146.62291 | 20045 ft | 378 kts | 343° |
| 2026-05-07 12:36 | -18.35512 | 146.61600 | 20046 ft | 378 kts | 343° |
| 2026-05-07 12:36 | -18.32963 | 146.60909 | 20045 ft | 378 kts | 343° |
| 2026-05-07 12:36 | -18.30415 | 146.60218 | 20045 ft | 378 kts | 343° |
| 2026-05-07 12:36 | -18.27867 | 146.59527 | 20043 ft | 378 kts | 343° |
| 2026-05-07 12:37 | -18.25319 | 146.58836 | 20045 ft | 378 kts | 343° |
| 2026-05-07 12:37 | -18.22774 | 146.58146 | 20043 ft | 378 kts | 343° |
| 2026-05-07 12:37 | -18.20224 | 146.57455 | 20043 ft | 378 kts | 343° |
| 2026-05-07 12:37 | -18.17677 | 146.56764 | 20043 ft | 378 kts | 343° |
| 2026-05-07 12:38 | -18.15128 | 146.56073 | 20043 ft | 378 kts | 343° |
| 2026-05-07 12:38 | -18.12621 | 146.55395 | 20041 ft | 373 kts | 343° |
| 2026-05-07 12:38 | -18.11876 | 146.55193 | 20041 ft | 368 kts | 343° |
| 2026-05-07 12:47 | -18.11618 | 146.55124 | 20044 ft | 366 kts | 343° |
| 2026-05-07 12:47 | -18.09239 | 146.54484 | 20041 ft | 349 kts | 343° |
| 2026-05-07 12:47 | -18.06947 | 146.53867 | 20041 ft | 332 kts | 343° |
| 2026-05-07 12:47 | -18.04737 | 146.53272 | 20040 ft | 315 kts | 342° |
| 2026-05-07 12:48 | -18.02656 | 146.52709 | 20040 ft | 306 kts | 342° |
| 2026-05-07 12:48 | -18.00559 | 146.52136 | 20045 ft | 326 kts | 342° |
| 2026-05-07 12:48 | -17.98291 | 146.51515 | 20042 ft | 348 kts | 343° |
| 2026-05-07 12:48 | -17.95881 | 146.50858 | 20042 ft | 368 kts | 343° |
| 2026-05-07 12:49 | -17.93355 | 146.50181 | 20036 ft | 379 kts | 345° |
| 2026-05-07 12:49 | -17.90757 | 146.49662 | 20040 ft | 380 kts | 347° |
| 2026-05-07 12:49 | -17.88160 | 146.49170 | 20040 ft | 379 kts | 347° |
| 2026-05-07 12:49 | -17.85561 | 146.48673 | 20032 ft | 378 kts | 347° |
| 2026-05-07 12:50 | -17.82977 | 146.48177 | 20037 ft | 378 kts | 347° |
| 2026-05-07 12:50 | -17.81265 | 146.47847 | 20037 ft | 378 kts | 347° |
| 2026-05-07 12:50 | -17.77799 | 146.47179 | 20037 ft | 378 kts | 347° |
| 2026-05-07 12:50 | -17.76086 | 146.46849 | 20037 ft | 378 kts | 347° |
| 2026-05-07 12:51 | -17.73499 | 146.46351 | 20034 ft | 378 kts | 347° |
| 2026-05-07 12:51 | -17.70912 | 146.45853 | 20035 ft | 378 kts | 347° |
| 2026-05-07 12:51 | -17.69165 | 146.45517 | 20032 ft | 378 kts | 347° |
| 2026-05-07 12:51 | -17.67816 | 146.45258 | 20035 ft | 378 kts | 347° |
| 2026-05-07 12:52 | -17.65227 | 146.44760 | 20033 ft | 378 kts | 347° |
| 2026-05-07 12:52 | -17.62639 | 146.44264 | 20032 ft | 378 kts | 347° |
| 2026-05-07 12:52 | -17.60052 | 146.43766 | 20029 ft | 378 kts | 347° |
| 2026-05-07 12:52 | -17.57468 | 146.43269 | 20030 ft | 378 kts | 347° |
| 2026-05-07 12:53 | -17.54880 | 146.42772 | 20032 ft | 378 kts | 347° |
| 2026-05-07 12:53 | -17.52283 | 146.42273 | 20035 ft | 378 kts | 347° |
| 2026-05-07 12:53 | -17.49700 | 146.41778 | 20029 ft | 378 kts | 347° |
| 2026-05-07 12:53 | -17.47108 | 146.41281 | 20033 ft | 378 kts | 347° |
| 2026-05-07 12:54 | -17.44525 | 146.40785 | 20032 ft | 378 kts | 347° |
| 2026-05-07 12:54 | -17.41940 | 146.40289 | 20032 ft | 378 kts | 347° |
| 2026-05-07 12:54 | -17.39355 | 146.39793 | 20036 ft | 378 kts | 347° |
| 2026-05-07 12:54 | -17.36768 | 146.39296 | 20028 ft | 378 kts | 347° |
| 2026-05-07 12:55 | -17.34182 | 146.38800 | 20031 ft | 378 kts | 347° |
| 2026-05-07 12:55 | -17.31594 | 146.38304 | 20030 ft | 378 kts | 347° |
| 2026-05-07 12:55 | -17.29006 | 146.37807 | 20028 ft | 378 kts | 347° |
| 2026-05-07 12:55 | -17.26452 | 146.37318 | 20015 ft | 378 kts | 347° |
| 2026-05-07 12:56 | -17.23869 | 146.36776 | 20021 ft | 378 kts | 343° |
| 2026-05-07 12:56 | -17.21396 | 146.35858 | 20025 ft | 376 kts | 334° |
| 2026-05-07 12:56 | -17.19115 | 146.34528 | 20030 ft | 375 kts | 325° |
| 2026-05-07 12:56 | -17.17038 | 146.32886 | 20028 ft | 375 kts | 321° |
| 2026-05-07 12:57 | -17.14977 | 146.31212 | 19891 ft | 375 kts | 321° |
| 2026-05-07 12:57 | -17.12916 | 146.29549 | 19646 ft | 373 kts | 322° |
| 2026-05-07 12:57 | -17.10857 | 146.27891 | 19125 ft | 375 kts | 322° |
| 2026-05-07 12:57 | -17.08795 | 146.26232 | 18561 ft | 374 kts | 322° |
| 2026-05-07 12:58 | -17.06740 | 146.24580 | 18001 ft | 371 kts | 322° |
| 2026-05-07 12:58 | -17.04705 | 146.22943 | 17453 ft | 367 kts | 322° |
| 2026-05-07 12:58 | -17.02692 | 146.21326 | 16903 ft | 363 kts | 322° |
| 2026-05-07 12:58 | -17.00697 | 146.19723 | 16368 ft | 360 kts | 322° |
| 2026-05-07 12:59 | -16.98719 | 146.18134 | 15827 ft | 357 kts | 322° |
| 2026-05-07 12:59 | -16.96756 | 146.16557 | 15295 ft | 355 kts | 322° |
| 2026-05-07 12:59 | -16.94801 | 146.14985 | 14737 ft | 354 kts | 322° |
| 2026-05-07 12:59 | -16.92858 | 146.13423 | 14218 ft | 352 kts | 322° |
| 2026-05-07 13:00 | -16.90922 | 146.11868 | 13658 ft | 351 kts | 322° |
| 2026-05-07 13:00 | -16.88994 | 146.10320 | 13138 ft | 347 kts | 322° |
| 2026-05-07 13:00 | -16.87086 | 146.08789 | 12626 ft | 345 kts | 322° |
| 2026-05-07 13:00 | -16.85190 | 146.07267 | 12104 ft | 342 kts | 322° |
| 2026-05-07 13:01 | -16.83305 | 146.05755 | 11581 ft | 341 kts | 322° |
| 2026-05-07 13:01 | -16.81429 | 146.04250 | 11075 ft | 340 kts | 322° |
| 2026-05-07 13:01 | -16.79578 | 146.02764 | 10527 ft | 340 kts | 323° |
| 2026-05-07 13:01 | -16.77710 | 146.01266 | 10185 ft | 334 kts | 323° |
| 2026-05-07 13:02 | -16.75899 | 145.99814 | 10056 ft | 321 kts | 323° |
| 2026-05-07 13:02 | -16.74166 | 145.98425 | 9934 ft | 308 kts | 323° |
| 2026-05-07 13:02 | -16.72488 | 145.97082 | 9658 ft | 301 kts | 323° |
| 2026-05-07 13:02 | -16.70850 | 145.95771 | 9358 ft | 294 kts | 323° |
| 2026-05-07 13:03 | -16.69310 | 145.94381 | 8993 ft | 293 kts | 314° |
| 2026-05-07 13:03 | -16.67953 | 145.92803 | 8586 ft | 292 kts | 311° |
| 2026-05-07 13:03 | -16.66601 | 145.91227 | 8195 ft | 291 kts | 312° |
| 2026-05-07 13:03 | -16.65248 | 145.89656 | 7785 ft | 292 kts | 312° |
| 2026-05-07 13:04 | -16.63908 | 145.88064 | 7383 ft | 292 kts | 306° |
| 2026-05-07 13:04 | -16.62886 | 145.86241 | 6968 ft | 291 kts | 291° |
| 2026-05-07 13:04 | -16.62243 | 145.84244 | 6563 ft | 291 kts | 285° |
| 2026-05-07 13:04 | -16.61631 | 145.82225 | 6133 ft | 293 kts | 285° |
| 2026-05-07 13:05 | -16.61010 | 145.80204 | 5713 ft | 293 kts | 285° |
| 2026-05-07 13:05 | -16.60478 | 145.78160 | 5297 ft | 291 kts | 274° |
| 2026-05-07 13:05 | -16.60554 | 145.76102 | 5075 ft | 279 kts | 253° |
| 2026-05-07 13:05 | -16.61057 | 145.74209 | 4998 ft | 263 kts | 249° |
| 2026-05-07 13:06 | -16.61580 | 145.72473 | 4993 ft | 238 kts | 239° |
| 2026-05-07 13:06 | -16.62422 | 145.71120 | 4992 ft | 209 kts | 220° |
| 2026-05-07 13:06 | -16.63437 | 145.70042 | 5001 ft | 211 kts | 219° |
| 2026-05-07 13:06 | -16.64454 | 145.68943 | 4876 ft | 210 kts | 219° |
| 2026-05-07 13:07 | -16.65458 | 145.67842 | 4614 ft | 209 kts | 219° |
| 2026-05-07 13:07 | -16.66456 | 145.66762 | 4354 ft | 207 kts | 214° |
| 2026-05-07 13:07 | -16.67675 | 145.66162 | 4075 ft | 187 kts | 179° |
| 2026-05-07 13:07 | -16.68920 | 145.66373 | 3841 ft | 181 kts | 152° |
| 2026-05-07 13:08 | -16.70068 | 145.66909 | 3609 ft | 180 kts | 153° |
| 2026-05-07 13:08 | -16.71203 | 145.67428 | 3387 ft | 177 kts | 153° |
| 2026-05-07 13:08 | -16.72335 | 145.67940 | 3122 ft | 177 kts | 154° |
| 2026-05-07 13:08 | -16.73461 | 145.68442 | 2921 ft | 175 kts | 154° |
| 2026-05-07 13:09 | -16.74599 | 145.68951 | 2866 ft | 181 kts | 154° |
| 2026-05-07 13:09 | -16.75752 | 145.69473 | 2607 ft | 181 kts | 154° |
| 2026-05-07 13:09 | -16.76922 | 145.70008 | 2230 ft | 185 kts | 155° |
| 2026-05-07 13:09 | -16.78102 | 145.70544 | 1936 ft | 184 kts | 155° |
| 2026-05-07 13:10 | -16.79259 | 145.71068 | 1740 ft | 176 kts | 155° |
| 2026-05-07 13:10 | -16.80346 | 145.71553 | 1444 ft | 162 kts | 154° |
| 2026-05-07 13:10 | -16.81347 | 145.72002 | 1200 ft | 152 kts | 154° |
| 2026-05-07 13:10 | -16.82298 | 145.72433 | 951 ft | 145 kts | 155° |
| 2026-05-07 13:11 | -16.83177 | 145.72868 | 742 ft | 134 kts | 149° |
| 2026-05-07 13:11 | -16.83983 | 145.73204 | 572 ft | 119 kts | 165° |
| 2026-05-07 13:11 | -16.84735 | 145.73539 | 430 ft | 127 kts | 159° |
| 2026-05-07 13:11 | -16.85612 | 145.73919 | 294 ft | 135 kts | 157° |
| 2026-05-07 13:12 | -16.86441 | 145.74296 | 46 ft | 126 kts | 159° |
| 2026-05-07 13:12 | -16.87202 | 145.74639 | -11 ft | 108 kts | 157° |
| 2026-05-07 13:12 | -16.87711 | 145.74869 | 15 ft | 29 kts | 156° |
| 2026-05-07 13:12 | -16.87844 | 145.74925 | 14 ft | 35 kts | 161° |
| 2026-05-07 13:13 | -16.87973 | 145.74969 | 14 ft | 9 kts | 205° |
| 2026-05-07 13:13 | -16.88004 | 145.74909 | 16 ft | 11 kts | 248° |
| 2026-05-07 13:13 | -16.88010 | 145.74893 | 16 ft | 0 kts | 246° |
| 2026-05-07 13:16 | -16.88019 | 145.74870 | 17 ft | 7 kts | 252° |
| 2026-05-07 13:16 | -16.87989 | 145.74821 | 17 ft | 11 kts | 333° |
| 2026-05-07 13:16 | -16.87904 | 145.74783 | 16 ft | 16 kts | 338° |
| 2026-05-07 13:17 | -16.87816 | 145.74750 | 16 ft | 10 kts | 4° |
| 2026-05-07 13:17 | -16.87768 | 145.74810 | 15 ft | 14 kts | 68° |
| 2026-05-07 13:17 | -16.87725 | 145.74915 | 14 ft | 17 kts | 65° |
| 2026-05-07 13:17 | -16.87677 | 145.75030 | 15 ft | 14 kts | 63° |
| 2026-05-07 13:18 | -16.87650 | 145.75125 | 11 ft | 0 kts | 89° |
| 2026-05-07 13:18 | -16.87643 | 145.75159 | 11 ft | 10 kts | 73° |
| 2026-05-07 13:18 | -16.87627 | 145.75205 | 12 ft | 2 kts | 67° |
| 2026-05-07 13:18 | -16.87625 | 145.75211 | 12 ft | 0 kts | 67° |
| 2026-05-07 13:19 | -16.87624 | 145.75214 | 12 ft | 0 kts | 68° |